Time;durP1;ratioP1;P1;durP2;ratioP2;P2;SDS_P1;SDS_P2;PMS_P1;PMS_P2;Temp;Humidity;BMP_temperature;BMP_pressure;BME280_temperature;BME280_humidity;BME280_pressure;Samples;Min_cycle;Max_cycle;Signal;HPM_P1;HPM_P2
2023/11/10 00:01:00;;;;;;;;;;;;;;;;;;5093671;28;19916;-72
2023/11/10 00:03:26;;;;;;;;;;;;;;;;;;5096611;28;19908;-72
2023/11/10 00:05:52;;;;;;;;;;;;;;;;;;5097448;28;19908;-72
2023/11/10 00:08:18;;;;;;;;;;;;;;;;;;5097709;28;19908;-72
2023/11/10 00:10:44;;;;;;;;;;;;;;;;;;5097766;28;19921;-72
2023/11/10 00:13:10;;;;;;;;;;;;;;;;;;5097301;28;19914;-72
2023/11/10 00:15:36;;;;;;;;;;;;;;;;;;5097612;28;20003;-71
2023/11/10 00:18:02;;;;;;;;;;;;;;;;;;5097696;28;19908;-72
2023/11/10 00:20:28;;;;;;;;;;;;;;;;;;5078830;28;20407;-72
2023/11/10 00:22:54;;;;;;;;;;;;;;;;;;5097456;28;19908;-72
2023/11/10 00:25:20;;;;;;;;;;;;;;;;;;5097416;28;19908;-72
2023/11/10 00:27:46;;;;;;;;;;;;;;;;;;5096935;28;19931;-71
2023/11/10 00:30:12;;;;;;;;;;;;;;;;;;5097392;28;19908;-72
2023/11/10 00:32:39;;;;;;;;;;;;;;;;;;5097415;28;19908;-72
2023/11/10 00:35:05;;;;;;;;;;;;;;;;;;5097670;28;19931;-72
2023/11/10 00:37:31;;;;;;;;;;;;;;;;;;5097248;28;20307;-72
2023/11/10 00:39:57;;;;;;;;;;;;;;;;;;5078429;28;19912;-71
2023/11/10 00:42:23;;;;;;;;;;;;;;;;;;5097109;28;19917;-72
2023/11/10 00:44:51;;;;;;;;;;;;;;;;;;5097072;28;20336;-72
2023/11/10 00:47:17;;;;;;;;;;;;;;;;;;5096597;28;20378;-72
2023/11/10 00:49:43;;;;;;;;;;;;;;;;;;5097009;28;20028;-72
2023/11/10 00:52:09;;;;;;;;;;;;;;;;;;5097531;28;20312;-71
2023/11/10 00:54:34;;;;;;;;;;;;;;;;;;5096456;28;20395;-72
2023/11/10 01:02:29;;;;;;;;;;;;;;;;;;5096193;28;19998;-72
2023/11/10 01:04:56;;;;;;;;;;;;;;;;;;5096914;28;20256;-72
2023/11/10 01:07:22;;;;;;;;;;;;;;;;;;5078375;28;19908;-72
2023/11/10 01:09:48;;;;;;;;;;;;;;;;;;5096193;28;19909;-72
2023/11/10 01:12:14;;;;;;;;;;;;;;;;;;5096520;28;19908;-71
2023/11/10 01:14:40;;;;;;;;;;;;;;;;;;5096103;28;19909;-71
2023/11/10 01:17:06;;;;;;;;;;;;;;;;;;5096182;28;20348;-72
2023/11/10 01:19:32;;;;;;;;;;;;;;;;;;5096428;28;20319;-72
2023/11/10 01:21:58;;;;;;;;;;;;;;;;;;5077874;28;20307;-72
2023/11/10 01:24:24;;;;;;;;;;;;;;;;;;5078214;28;19908;-72
2023/11/10 01:26:51;;;;;;;;;;;;;;;;;;5096536;28;20007;-72
2023/11/10 01:29:17;;;;;;;;;;;;;;;;;;5095921;28;19969;-72
2023/11/10 01:31:44;;;;;;;;;;;;;;;;;;5096217;28;19912;-72
2023/11/10 01:34:10;;;;;;;;;;;;;;;;;;5077995;28;19908;-72
2023/11/10 01:36:36;;;;;;;;;;;;;;;;;;5095734;28;20469;-72
2023/11/10 01:39:05;;;;;;;;;;;;;;;;;;5096252;28;20382;-72
2023/11/10 01:41:32;;;;;;;;;;;;;;;;;;5095834;28;20279;-72
2023/11/10 01:43:58;;;;;;;;;;;;;;;;;;5095706;28;19919;-72
2023/11/10 01:46:24;;;;;;;;;;;;;;;;;;5095898;28;19908;-71
2023/11/10 01:48:50;;;;;;;;;;;;;;;;;;5095838;28;19915;-71
2023/11/10 01:51:16;;;;;;;;;;;;;;;;;;5095370;28;19942;-72
2023/11/10 01:53:42;;;;;;;;;;;;;;;;;;5095807;28;19912;-72
2023/11/10 01:56:08;;;;;;;;;;;;;;;;;;5095671;28;19935;-72
2023/11/10 01:58:34;;;;;;;;;;;;;;;;;;5095248;28;19951;-72
2023/11/10 02:01:00;;;;;;;;;;;;;;;;;;5095624;28;19916;-72
2023/11/10 02:03:26;;;;;;;;;;;;;;;;;;5095625;28;19977;-72
2023/11/10 02:05:52;;;;;;;;;;;;;;;;;;5095041;28;20013;-72
2023/11/10 02:08:18;;;;;;;;;;;;;;;;;;5095460;28;20342;-72
2023/11/10 02:10:43;;;;;;;;;;;;;;;;;;5095435;28;19908;-71
2023/11/10 02:13:09;;;;;;;;;;;;;;;;;;5095105;28;20289;-71
2023/11/10 02:15:35;;;;;;;;;;;;;;;;;;5095339;28;20006;-71
2023/11/10 02:18:01;;;;;;;;;;;;;;;;;;5095248;28;20440;-72
2023/11/10 02:20:28;;;;;;;;;;;;;;;;;;5094725;28;19914;-72
2023/11/10 02:22:53;;;;;;;;;;;;;;;;;;5095194;28;19908;-72
2023/11/10 02:25:19;;;;;;;;;;;;;;;;;;5075839;28;19915;-72
2023/11/10 02:27:46;;;;;;;;;;;;;;;;;;5095100;28;19995;-72
2023/11/10 02:30:11;;;;;;;;;;;;;;;;;;5095130;28;19908;-72
2023/11/10 02:32:39;;;;;;;;;;;;;;;;;;5094653;28;19916;-72
2023/11/10 02:35:07;;;;;;;;;;;;;;;;;;5094978;28;19948;-72
2023/11/10 02:37:33;;;;;;;;;;;;;;;;;;5094961;28;20426;-72
2023/11/10 02:39:59;;;;;;;;;;;;;;;;;;5094318;28;19914;-72
2023/11/10 02:42:25;;;;;;;;;;;;;;;;;;5094905;28;20432;-72
2023/11/10 02:44:51;;;;;;;;;;;;;;;;;;5094761;28;19908;-72
2023/11/10 02:47:17;;;;;;;;;;;;;;;;;;5094359;28;19931;-72
2023/11/10 02:49:43;;;;;;;;;;;;;;;;;;5076462;28;19908;-72
2023/11/10 02:52:09;;;;;;;;;;;;;;;;;;5094640;28;19915;-72
2023/11/10 02:54:35;;;;;;;;;;;;;;;;;;5076055;28;19908;-72
2023/11/10 02:57:01;;;;;;;;;;;;;;;;;;5094558;28;19915;-72
2023/11/10 02:59:27;;;;;;;;;;;;;;;;;;5094508;28;19915;-72
2023/11/10 03:01:55;;;;;;;;;;;;;;;;;;5075719;28;19966;-72
2023/11/10 03:04:21;;;;;;;;;;;;;;;;;;5094413;28;20368;-72
2023/11/10 03:06:48;;;;;;;;;;;;;;;;;;5094419;28;19908;-72
2023/11/10 03:09:14;;;;;;;;;;;;;;;;;;5093938;28;19953;-72
2023/11/10 03:11:40;;;;;;;;;;;;;;;;;;5094275;28;19907;-72
2023/11/10 03:14:06;;;;;;;;;;;;;;;;;;5076131;28;20379;-72
2023/11/10 03:16:32;;;;;;;;;;;;;;;;;;5093909;28;20252;-71
2023/11/10 03:18:58;;;;;;;;;;;;;;;;;;5094253;28;20014;-72
2023/11/10 03:21:24;;;;;;;;;;;;;;;;;;5094181;28;19916;-71
2023/11/10 03:23:50;;;;;;;;;;;;;;;;;;5093808;28;19912;-71
2023/11/10 03:26:16;;;;;;;;;;;;;;;;;;5094145;28;20007;-71
2023/11/10 03:28:43;;;;;;;;;;;;;;;;;;5093889;28;19915;-71
2023/11/10 03:31:09;;;;;;;;;;;;;;;;;;5094081;28;19908;-73
2023/11/10 03:33:35;;;;;;;;;;;;;;;;;;5094101;28;19908;-73
2023/11/10 03:36:02;;;;;;;;;;;;;;;;;;5093551;28;19915;-73
2023/11/10 03:38:28;;;;;;;;;;;;;;;;;;5093881;28;20007;-73
2023/11/10 03:40:54;;;;;;;;;;;;;;;;;;5093656;28;20073;-73
2023/11/10 03:43:20;;;;;;;;;;;;;;;;;;5093746;28;19909;-73
2023/11/10 03:45:46;;;;;;;;;;;;;;;;;;5093853;28;19908;-73
2023/11/10 03:48:12;;;;;;;;;;;;;;;;;;5093880;28;19931;-73
2023/11/10 03:50:38;;;;;;;;;;;;;;;;;;5093466;28;19912;-73
2023/11/10 03:53:04;;;;;;;;;;;;;;;;;;5093827;28;19999;-73
2023/11/10 03:55:31;;;;;;;;;;;;;;;;;;5093791;28;20298;-73
2023/11/10 03:57:58;;;;;;;;;;;;;;;;;;5093529;28;19947;-73
2023/11/10 04:00:23;;;;;;;;;;;;;;;;;;5093728;28;20394;-73
2023/11/10 04:02:49;;;;;;;;;;;;;;;;;;5093803;28;19912;-73
2023/11/10 04:05:15;;;;;;;;;;;;;;;;;;5093379;28;19916;-73
2023/11/10 04:07:41;;;;;;;;;;;;;;;;;;5093777;28;19977;-73
2023/11/10 04:10:07;;;;;;;;;;;;;;;;;;5093670;28;19908;-74
2023/11/10 04:12:33;;;;;;;;;;;;;;;;;;5093259;28;19913;-73
2023/11/10 04:14:59;;;;;;;;;;;;;;;;;;5093622;28;20004;-73
2023/11/10 04:17:25;;;;;;;;;;;;;;;;;;5093790;28;19908;-73
2023/11/10 04:19:51;;;;;;;;;;;;;;;;;;5093224;28;20483;-73
2023/11/10 04:22:17;;;;;;;;;;;;;;;;;;5093446;28;19916;-73
2023/11/10 04:24:43;;;;;;;;;;;;;;;;;;5093553;28;19915;-73
2023/11/10 04:27:09;;;;;;;;;;;;;;;;;;5093104;28;20049;-73
2023/11/10 04:29:36;;;;;;;;;;;;;;;;;;5093482;28;19976;-73
2023/11/10 04:32:02;;;;;;;;;;;;;;;;;;5093040;28;20352;-73
2023/11/10 04:34:28;;;;;;;;;;;;;;;;;;5093590;28;19908;-74
2023/11/10 04:36:54;;;;;;;;;;;;;;;;;;5093393;28;19908;-73
2023/11/10 04:39:20;;;;;;;;;;;;;;;;;;5093002;28;20011;-73
2023/11/10 04:41:47;;;;;;;;;;;;;;;;;;5093175;28;19920;-73
2023/11/10 04:44:13;;;;;;;;;;;;;;;;;;5093376;28;19908;-73
2023/11/10 04:46:40;;;;;;;;;;;;;;;;;;5074797;28;19908;-73
2023/11/10 04:49:06;;;;;;;;;;;;;;;;;;5095366;28;19954;-73
2023/11/10 04:51:32;;;;;;;;;;;;;;;;;;5079422;28;19945;-73
2023/11/10 04:53:58;;;;;;;;;;;;;;;;;;5096600;28;19977;-73
2023/11/10 04:56:24;;;;;;;;;;;;;;;;;;5096903;28;19912;-73
2023/11/10 04:58:50;;;;;;;;;;;;;;;;;;5096865;28;19936;-73
2023/11/10 05:01:15;;;;;;;;;;;;;;;;;;5096301;28;19973;-73
2023/11/10 05:03:42;;;;;;;;;;;;;;;;;;5096654;28;19937;-73
2023/11/10 05:06:07;;;;;;;;;;;;;;;;;;5096654;28;19908;-73
2023/11/10 05:08:33;;;;;;;;;;;;;;;;;;5096252;28;19908;-73
2023/11/10 05:10:59;;;;;;;;;;;;;;;;;;5096906;28;19908;-73
2023/11/10 05:13:26;;;;;;;;;;;;;;;;;;5096518;28;19915;-73
2023/11/10 05:15:52;;;;;;;;;;;;;;;;;;5077934;28;19908;-72
2023/11/10 05:18:20;;;;;;;;;;;;;;;;;;5096421;28;19908;-73
2023/11/10 05:20:46;;;;;;;;;;;;;;;;;;5096372;28;19912;-73
2023/11/10 05:23:13;;;;;;;;;;;;;;;;;;5095963;28;19961;-73
2023/11/10 05:25:39;;;;;;;;;;;;;;;;;;5096353;28;19912;-73
2023/11/10 05:28:05;;;;;;;;;;;;;;;;;;5077832;28;19920;-73
2023/11/10 05:30:30;;;;;;;;;;;;;;;;;;5096198;28;19916;-73
2023/11/10 05:32:57;;;;;;;;;;;;;;;;;;5096207;28;20027;-73
2023/11/10 05:35:23;;;;;;;;;;;;;;;;;;5095761;28;19908;-73
2023/11/10 05:37:48;;;;;;;;;;;;;;;;;;5096378;28;20011;-73
2023/11/10 05:40:16;;;;;;;;;;;;;;;;;;5095810;28;19946;-71
2023/11/10 05:42:42;;;;;;;;;;;;;;;;;;5095730;28;19916;-71
2023/11/10 05:45:09;;;;;;;;;;;;;;;;;;5095927;28;19914;-72
2023/11/10 05:47:35;;;;;;;;;;;;;;;;;;5095893;28;19908;-72
2023/11/10 05:50:01;;;;;;;;;;;;;;;;;;5095582;28;20342;-71
2023/11/10 05:52:30;;;;;;;;;;;;;;;;;;5095766;28;20007;-71
2023/11/10 05:54:58;;;;;;;;;;;;;;;;;;5095766;28;19962;-72
2023/11/10 05:57:24;;;;;;;;;;;;;;;;;;5095416;28;20429;-72
2023/11/10 05:59:50;;;;;;;;;;;;;;;;;;5095641;28;19912;-73
2023/11/10 06:02:17;;;;;;;;;;;;;;;;;;5077360;28;20355;-72
2023/11/10 06:04:44;;;;;;;;;;;;;;;;;;5095121;28;19995;-72
2023/11/10 06:07:11;;;;;;;;;;;;;;;;;;5095506;28;19908;-72
2023/11/10 06:09:37;;;;;;;;;;;;;;;;;;5095510;28;19914;-72
2023/11/10 06:12:04;;;;;;;;;;;;;;;;;;5095029;28;20413;-73
2023/11/10 06:14:30;;;;;;;;;;;;;;;;;;5092601;28;19908;-69
2023/11/10 06:16:56;;;;;;;;;;;;;;;;;;5076336;28;20496;-71
2023/11/10 06:19:22;;;;;;;;;;;;;;;;;;5094314;28;20356;-73
2023/11/10 06:21:50;;;;;;;;;;;;;;;;;;5076281;28;20018;-72
2023/11/10 06:24:16;;;;;;;;;;;;;;;;;;5097026;28;19911;-74
2023/11/10 06:26:42;;;;;;;;;;;;;;;;;;5092812;28;19912;-71
2023/11/10 06:29:08;;;;;;;;;;;;;;;;;;5082080;28;19959;-71
2023/11/10 06:31:34;;;;;;;;;;;;;;;;;;5092849;28;19908;-72
2023/11/10 06:34:00;;;;;;;;;;;;;;;;;;5075667;28;19912;-70
2023/11/10 06:36:26;;;;;;;;;;;;;;;;;;5088069;28;19949;-70
2023/11/10 06:38:52;;;;;;;;;;;;;;;;;;5089516;28;19912;-67
2023/11/10 06:41:18;;;;;;;;;;;;;;;;;;5085904;28;19928;-68
2023/11/10 06:43:47;;;;;;;;;;;;;;;;;;5094965;28;19966;-68
2023/11/10 06:46:13;;;;;;;;;;;;;;;;;;5066559;28;19916;-70
2023/11/10 06:48:39;;;;;;;;;;;;;;;;;;5078330;28;20030;-69
2023/11/10 06:51:05;;;;;;;;;;;;;;;;;;5088615;28;19912;-66
2023/11/10 06:53:32;;;;;;;;;;;;;;;;;;5088353;28;19912;-69
2023/11/10 06:55:59;;;;;;;;;;;;;;;;;;5088945;28;19916;-69
2023/11/10 06:58:25;;;;;;;;;;;;;;;;;;5089550;28;19969;-68
2023/11/10 07:00:51;;;;;;;;;;;;;;;;;;5089599;28;19920;-71
2023/11/10 07:03:19;;;;;;;;;;;;;;;;;;5089705;28;19920;-69
2023/11/10 07:05:45;;;;;;;;;;;;;;;;;;5090206;28;19927;-70
2023/11/10 07:08:11;;;;;;;;;;;;;;;;;;5091561;28;19912;-68
2023/11/10 07:10:41;;;;;;;;;;;;;;;;;;5092066;28;19934;-69
2023/11/10 07:13:07;;;;;;;;;;;;;;;;;;5086627;28;20373;-69
2023/11/10 07:15:33;;;;;;;;;;;;;;;;;;5074493;28;19912;-70
2023/11/10 07:18:00;;;;;;;;;;;;;;;;;;5073038;28;19908;-69
2023/11/10 07:20:26;;;;;;;;;;;;;;;;;;5089940;28;19911;-69
2023/11/10 07:22:53;;;;;;;;;;;;;;;;;;5062742;28;19912;-69
2023/11/10 07:25:19;;;;;;;;;;;;;;;;;;5085974;28;19927;-69
2023/11/10 07:27:44;;;;;;;;;;;;;;;;;;5090422;28;20362;-68
2023/11/10 07:30:10;;;;;;;;;;;;;;;;;;5092831;28;19908;-70
2023/11/10 07:32:36;;;;;;;;;;;;;;;;;;5088330;28;19938;-68
2023/11/10 07:35:05;;;;;;;;;;;;;;;;;;5090005;28;19948;-68
2023/11/10 07:37:34;;;;;;;;;;;;;;;;;;5088818;28;19938;-68
2023/11/10 07:40:01;;;;;;;;;;;;;;;;;;5092906;28;20303;-70
2023/11/10 07:42:27;;;;;;;;;;;;;;;;;;5080473;28;19920;-69
2023/11/10 07:44:53;;;;;;;;;;;;;;;;;;5074016;28;19966;-69
2023/11/10 07:47:19;;;;;;;;;;;;;;;;;;5077448;28;19916;-69
2023/11/10 07:49:45;;;;;;;;;;;;;;;;;;5092140;28;20425;-68
2023/11/10 07:52:11;;;;;;;;;;;;;;;;;;5092930;28;19954;-71
2023/11/10 07:54:37;;;;;;;;;;;;;;;;;;5086342;28;20276;-71
2023/11/10 07:57:03;;;;;;;;;;;;;;;;;;5076403;28;20316;-70
2023/11/10 07:59:28;;;;;;;;;;;;;;;;;;5088524;28;19996;-71
2023/11/10 08:01:54;;;;;;;;;;;;;;;;;;5074452;28;19916;-71
2023/11/10 08:04:21;;;;;;;;;;;;;;;;;;5091167;28;19912;-69
2023/11/10 08:06:47;;;;;;;;;;;;;;;;;;5089542;28;19920;-72
2023/11/10 08:09:15;;;;;;;;;;;;;;;;;;5087109;28;19912;-69
2023/11/10 08:11:42;;;;;;;;;;;;;;;;;;5091840;28;19912;-69
2023/11/10 08:14:07;;;;;;;;;;;;;;;;;;5073844;28;20365;-70
2023/11/10 08:16:33;;;;;;;;;;;;;;;;;;5092047;28;19923;-71
2023/11/10 08:18:59;;;;;;;;;;;;;;;;;;5075474;28;20010;-68
2023/11/10 08:21:25;;;;;;;;;;;;;;;;;;5076812;28;20033;-69
2023/11/10 08:23:51;;;;;;;;;;;;;;;;;;5090511;28;19916;-69
2023/11/10 08:26:17;;;;;;;;;;;;;;;;;;5089057;28;20300;-69
2023/11/10 08:28:43;;;;;;;;;;;;;;;;;;5096179;28;19958;-70
2023/11/10 08:31:09;;;;;;;;;;;;;;;;;;5082800;28;19919;-69
2023/11/10 08:33:35;;;;;;;;;;;;;;;;;;5094392;28;19954;-70
2023/11/10 08:36:01;;;;;;;;;;;;;;;;;;5077221;28;19916;-70
2023/11/10 08:38:28;;;;;;;;;;;;;;;;;;5090085;28;19908;-70
2023/11/10 08:40:54;;;;;;;;;;;;;;;;;;5092508;28;19920;-71
2023/11/10 08:43:20;;;;;;;;;;;;;;;;;;5092695;28;20382;-71
2023/11/10 08:45:46;;;;;;;;;;;;;;;;;;5084860;28;20274;-70
2023/11/10 08:48:12;;;;;;;;;;;;;;;;;;5086171;28;20619;-73
2023/11/10 08:50:39;;;;;;;;;;;;;;;;;;5092686;28;19918;-74
2023/11/10 08:53:06;;;;;;;;;;;;;;;;;;5093706;28;19942;-71
2023/11/10 08:55:32;;;;;;;;;;;;;;;;;;5094098;28;20318;-71
2023/11/10 08:57:58;;;;;;;;;;;;;;;;;;5090108;28;19927;-73
2023/11/10 09:00:24;;;;;;;;;;;;;;;;;;5091488;28;19912;-71
2023/11/10 09:02:52;;;;;;;;;;;;;;;;;;5102616;28;20288;-71
2023/11/10 09:05:19;;;;;;;;;;;;;;;;;;5081436;28;19912;-72
2023/11/10 09:07:45;;;;;;;;;;;;;;;;;;5092431;28;19927;-72
2023/11/10 09:10:11;;;;;;;;;;;;;;;;;;5091769;28;19912;-71
2023/11/10 09:12:38;;;;;;;;;;;;;;;;;;5094949;28;19918;-71
2023/11/10 09:15:04;;;;;;;;;;;;;;;;;;5091487;28;19912;-72
2023/11/10 09:17:31;;;;;;;;;;;;;;;;;;5094556;28;19938;-69
2023/11/10 09:19:57;;;;;;;;;;;;;;;;;;5070431;28;20010;-72
2023/11/10 09:22:23;;;;;;;;;;;;;;;;;;5074809;28;20054;-69
2023/11/10 09:24:49;;;;;;;;;;;;;;;;;;5094239;28;19908;-68
2023/11/10 09:27:15;;;;;;;;;;;;;;;;;;5086077;28;19921;-72
2023/11/10 09:29:41;;;;;;;;;;;;;;;;;;5072454;28;19912;-72
2023/11/10 09:32:10;;;;;;;;;;;;;;;;;;5088672;28;19912;-70
2023/11/10 09:34:37;;;;;;;;;;;;;;;;;;5072687;28;19977;-69
2023/11/10 09:37:04;;;;;;;;;;;;;;;;;;5091810;28;19912;-70
2023/11/10 09:39:30;;;;;;;;;;;;;;;;;;5083871;28;19916;-70
2023/11/10 09:41:56;;;;;;;;;;;;;;;;;;5091723;28;20314;-70
2023/11/10 09:44:22;;;;;;;;;;;;;;;;;;5091900;28;20383;-70
2023/11/10 09:46:48;;;;;;;;;;;;;;;;;;5091821;28;20003;-70
2023/11/10 09:49:14;;;;;;;;;;;;;;;;;;5094068;28;19916;-70
2023/11/10 09:51:40;;;;;;;;;;;;;;;;;;5068709;28;19916;-69
2023/11/10 09:54:12;;;;;;;;;;;;;;;;;;5090368;28;19909;-70
2023/11/10 09:58:43;;;;;;;;;;;;;;;;;;5087662;27;19917;-70
2023/11/10 10:01:09;;;;;;;;;;;;;;;;;;5078347;28;20399;-70
2023/11/10 10:03:36;;;;;;;;;;;;;;;;;;5063889;28;20313;-70
2023/11/10 10:06:02;;;;;;;;;;;;;;;;;;5078659;28;19915;-69
2023/11/10 10:13:01;;;;;;;;;;;;;;;;;;5082966;27;19920;-69
2023/11/10 10:15:28;;;;;;;;;;;;;;;;;;5069716;28;20336;-68
2023/11/10 10:17:54;;;;;;;;;;;;;;;;;;5076342;28;19924;-68
2023/11/10 10:24:43;;;;;;;;;;;;;;;;;;5121311;27;20402;-67
2023/11/10 10:29:03;;;;;;;;;;;;;;;;;;5106804;27;19919;-68
2023/11/10 10:31:29;;;;;;;;;;;;;;;;;;5087342;28;19954;-70
2023/11/10 10:33:55;;;;;;;;;;;;;;;;;;5095349;28;19955;-70
2023/11/10 10:36:21;;;;;;;;;;;;;;;;;;5083873;28;19973;-68
2023/11/10 10:38:47;;;;;;;;;;;;;;;;;;5085344;28;20015;-68
2023/11/10 10:41:16;;;;;;;;;;;;;;;;;;5096404;28;20288;-69
2023/11/10 10:44:39;;;;;;;;;;;;;;;;;;5083359;27;20291;-73
2023/11/10 10:47:05;;;;;;;;;;;;;;;;;;5085597;28;19918;-70
2023/11/10 10:51:27;;;;;;;;;;;;;;;;;;5104949;27;20729;-72
2023/11/10 10:54:20;;;;;;;;;;;;;;;;;;5085266;27;19916;-73
2023/11/10 10:56:45;;;;;;;;;;;;;;;;;;5052081;28;20598;-76
2023/11/10 10:59:11;;;;;;;;;;;;;;;;;;5046588;28;19909;-75
2023/11/10 11:06:10;;;;;;;;;;;;;;;;;;5086457;27;19918;-74
2023/11/10 11:11:05;;;;;;;;;;;;;;;;;;5101857;27;19926;-75
2023/11/10 11:13:31;;;;;;;;;;;;;;;;;;5085808;28;19912;-74
2023/11/10 11:16:57;;;;;;;;;;;;;;;;;;5094710;27;19917;-75
2023/11/10 11:23:15;;;;;;;;;;;;;;;;;;5090343;27;20402;-74
2023/11/10 11:25:40;;;;;;;;;;;;;;;;;;5087709;28;19919;-73
2023/11/10 11:28:31;;;;;;;;;;;;;;;;;;5129154;27;20647;-74
2023/11/10 11:30:57;;;;;;;;;;;;;;;;;;5129443;28;19918;-73
2023/11/10 11:33:23;;;;;;;;;;;;;;;;;;5128441;28;20006;-73
2023/11/10 11:37:30;;;;;;;;;;;;;;;;;;5107835;27;19916;-74
2023/11/10 11:39:56;;;;;;;;;;;;;;;;;;5109391;28;19916;-73
2023/11/10 11:42:23;;;;;;;;;;;;;;;;;;5110748;28;20011;-73
2023/11/10 11:44:49;;;;;;;;;;;;;;;;;;5109867;28;19908;-73
2023/11/10 11:47:15;;;;;;;;;;;;;;;;;;5111147;28;20360;-74
2023/11/10 11:49:41;;;;;;;;;;;;;;;;;;5095406;28;19909;-73
2023/11/10 11:52:08;;;;;;;;;;;;;;;;;;5089831;28;19912;-74
2023/11/10 11:58:17;;;;;;;;;;;;;;;;;;5109412;27;19916;-73
2023/11/10 12:00:43;;;;;;;;;;;;;;;;;;5107066;28;19912;-73
2023/11/10 12:03:09;;;;;;;;;;;;;;;;;;5104805;28;19912;-73
2023/11/10 12:05:35;;;;;;;;;;;;;;;;;;5108185;28;19915;-73
2023/11/10 12:08:56;;;;;;;;;;;;;;;;;;5087735;27;19920;-73
2023/11/10 12:11:22;;;;;;;;;;;;;;;;;;5085644;28;19912;-73
2023/11/10 12:15:16;;;;;;;;;;;;;;;;;;5089845;27;19922;-75
2023/11/10 12:17:43;;;;;;;;;;;;;;;;;;5083900;28;19916;-69
2023/11/10 12:20:09;;;;;;;;;;;;;;;;;;5088481;28;20212;-71
2023/11/10 12:22:35;;;;;;;;;;;;;;;;;;5088666;28;20392;-72
2023/11/10 12:25:02;;;;;;;;;;;;;;;;;;5087771;28;19976;-73
2023/11/10 12:27:50;;;;;;;;;;;;;;;;;;5088556;27;19916;-70
2023/11/10 12:33:20;;;;;;;;;;;;;;;;;;5168124;27;19911;-74
2023/11/10 12:36:51;;;;;;;;;;;;;;;;;;5088234;28;19923;-71
2023/11/10 12:39:17;;;;;;;;;;;;;;;;;;5087871;28;20028;-74
2023/11/10 12:44:04;;;;;;;;;;;;;;;;;;5151199;27;19911;-72
2023/11/10 12:46:30;;;;;;;;;;;;;;;;;;5148924;27;20006;-71
2023/11/10 12:49:06;;;;;;;;;;;;;;;;;;5089554;27;19919;-72
2023/11/10 12:51:32;;;;;;;;;;;;;;;;;;5086738;28;19913;-69
2023/11/10 12:53:58;;;;;;;;;;;;;;;;;;5087820;28;19908;-72
2023/11/10 12:56:25;;;;;;;;;;;;;;;;;;5088379;28;19909;-73
2023/11/10 12:58:51;;;;;;;;;;;;;;;;;;5087843;28;19908;-72
2023/11/10 13:01:24;;;;;;;;;;;;;;;;;;5087052;28;19914;-70
2023/11/10 13:03:50;;;;;;;;;;;;;;;;;;5088521;28;19972;-70
2023/11/10 13:06:16;;;;;;;;;;;;;;;;;;5089493;28;19958;-69
2023/11/10 13:08:42;;;;;;;;;;;;;;;;;;5088519;28;19920;-71
2023/11/10 13:11:08;;;;;;;;;;;;;;;;;;5089988;28;19966;-73
2023/11/10 13:13:34;;;;;;;;;;;;;;;;;;5087783;28;19973;-73
2023/11/10 13:16:08;;;;;;;;;;;;;;;;;;5089338;28;19963;-69
2023/11/10 13:18:34;;;;;;;;;;;;;;;;;;5075877;28;19912;-71
2023/11/10 13:21:00;;;;;;;;;;;;;;;;;;5087334;28;19913;-73
2023/11/10 13:23:27;;;;;;;;;;;;;;;;;;5086892;28;19915;-72
2023/11/10 13:25:53;;;;;;;;;;;;;;;;;;5087017;28;19962;-72
2023/11/10 13:28:19;;;;;;;;;;;;;;;;;;5088595;28;19955;-71
2023/11/10 13:30:45;;;;;;;;;;;;;;;;;;5088572;28;19920;-72
2023/11/10 13:33:11;;;;;;;;;;;;;;;;;;5088737;28;19908;-72
2023/11/10 13:35:37;;;;;;;;;;;;;;;;;;5088259;28;19916;-71
2023/11/10 13:38:04;;;;;;;;;;;;;;;;;;5087453;28;19923;-70
2023/11/10 13:40:30;;;;;;;;;;;;;;;;;;5087766;28;19915;-72
2023/11/10 13:42:56;;;;;;;;;;;;;;;;;;5088196;28;20343;-70
2023/11/10 13:45:22;;;;;;;;;;;;;;;;;;5087837;28;20376;-70
2023/11/10 13:47:48;;;;;;;;;;;;;;;;;;5087114;28;19920;-69
2023/11/10 13:50:15;;;;;;;;;;;;;;;;;;5087856;28;20471;-70
2023/11/10 13:52:41;;;;;;;;;;;;;;;;;;5088557;28;20383;-70
2023/11/10 13:55:07;;;;;;;;;;;;;;;;;;5088207;28;19909;-71
2023/11/10 13:57:33;;;;;;;;;;;;;;;;;;5089360;28;19915;-71
2023/11/10 13:59:59;;;;;;;;;;;;;;;;;;5079033;28;19954;-74
2023/11/10 14:02:25;;;;;;;;;;;;;;;;;;5074494;28;20261;-75
2023/11/10 14:04:51;;;;;;;;;;;;;;;;;;5075943;28;19932;-75
2023/11/10 14:07:18;;;;;;;;;;;;;;;;;;5075240;28;19916;-74
2023/11/10 14:09:44;;;;;;;;;;;;;;;;;;5073480;28;19912;-75
2023/11/10 14:12:10;;;;;;;;;;;;;;;;;;5074098;28;19919;-76
2023/11/10 14:14:36;;;;;;;;;;;;;;;;;;5073832;28;19912;-75
2023/11/10 14:17:02;;;;;;;;;;;;;;;;;;5073224;28;19909;-75
2023/11/10 14:19:28;;;;;;;;;;;;;;;;;;5074164;28;19908;-75
2023/11/10 14:21:54;;;;;;;;;;;;;;;;;;5074086;28;20003;-75
2023/11/10 14:24:20;;;;;;;;;;;;;;;;;;5073571;28;19912;-75
2023/11/10 14:26:46;;;;;;;;;;;;;;;;;;5074221;28;20363;-76
2023/11/10 14:29:12;;;;;;;;;;;;;;;;;;5074705;28;19970;-72
2023/11/10 14:31:38;;;;;;;;;;;;;;;;;;5074421;28;19908;-75
2023/11/10 14:34:05;;;;;;;;;;;;;;;;;;5074767;28;20007;-74
2023/11/10 14:36:32;;;;;;;;;;;;;;;;;;5075254;28;20007;-74
2023/11/10 14:38:58;;;;;;;;;;;;;;;;;;5074143;28;20433;-74
2023/11/10 14:41:25;;;;;;;;;;;;;;;;;;5075847;28;19916;-75
2023/11/10 14:43:51;;;;;;;;;;;;;;;;;;5075371;28;20322;-74
2023/11/10 14:46:17;;;;;;;;;;;;;;;;;;5075585;28;19916;-74
2023/11/10 14:48:46;;;;;;;;;;;;;;;;;;5075342;28;19927;-75
2023/11/10 14:51:21;;;;;;;;;;;;;;;;;;5073384;28;19909;-74
2023/11/10 14:53:46;;;;;;;;;;;;;;;;;;5073411;28;20280;-75
2023/11/10 14:56:13;;;;;;;;;;;;;;;;;;5073392;28;19909;-76
2023/11/10 14:58:39;;;;;;;;;;;;;;;;;;5072873;28;19908;-75
2023/11/10 15:01:08;;;;;;;;;;;;;;;;;;5073303;28;20423;-75
2023/11/10 15:03:34;;;;;;;;;;;;;;;;;;5073209;28;19908;-75
2023/11/10 15:06:00;;;;;;;;;;;;;;;;;;5072910;28;19914;-74
2023/11/10 15:08:26;;;;;;;;;;;;;;;;;;5073088;28;19920;-75
2023/11/10 15:10:53;;;;;;;;;;;;;;;;;;5072696;28;20337;-74
2023/11/10 15:13:19;;;;;;;;;;;;;;;;;;5074893;28;19953;-75
2023/11/10 15:15:50;;;;;;;;;;;;;;;;;;5075094;28;20011;-74
2023/11/10 15:18:19;;;;;;;;;;;;;;;;;;5075614;28;19908;-74
2023/11/10 15:20:46;;;;;;;;;;;;;;;;;;5074608;28;19959;-74
2023/11/10 15:23:12;;;;;;;;;;;;;;;;;;5074893;28;20003;-74
2023/11/10 15:25:38;;;;;;;;;;;;;;;;;;5074862;28;19947;-75
2023/11/10 15:28:03;;;;;;;;;;;;;;;;;;5074281;28;19924;-75
2023/11/10 15:30:29;;;;;;;;;;;;;;;;;;5074735;28;19908;-74
2023/11/10 15:33:00;;;;;;;;;;;;;;;;;;5074564;28;19912;-74
2023/11/10 15:35:28;;;;;;;;;;;;;;;;;;5074736;28;19912;-75
2023/11/10 15:37:54;;;;;;;;;;;;;;;;;;5074618;28;19991;-74
2023/11/10 15:40:22;;;;;;;;;;;;;;;;;;5074650;28;19912;-74
2023/11/10 15:42:48;;;;;;;;;;;;;;;;;;5074626;28;19992;-74
2023/11/10 15:45:14;;;;;;;;;;;;;;;;;;5073273;28;19912;-75
2023/11/10 15:47:40;;;;;;;;;;;;;;;;;;5072574;28;19920;-75
2023/11/10 15:50:06;;;;;;;;;;;;;;;;;;5074660;28;20363;-74
2023/11/10 15:52:32;;;;;;;;;;;;;;;;;;5074469;28;19912;-75
2023/11/10 15:54:59;;;;;;;;;;;;;;;;;;5074069;28;19913;-75
2023/11/10 15:57:25;;;;;;;;;;;;;;;;;;5074432;28;19908;-76
2023/11/10 15:59:51;;;;;;;;;;;;;;;;;;5074158;28;20006;-75
2023/11/10 16:02:17;;;;;;;;;;;;;;;;;;5073827;28;19999;-75
2023/11/10 16:04:43;;;;;;;;;;;;;;;;;;5074319;28;19909;-75
2023/11/10 16:07:09;;;;;;;;;;;;;;;;;;5074057;28;19920;-75
2023/11/10 16:09:35;;;;;;;;;;;;;;;;;;5073592;28;19916;-75
2023/11/10 16:12:01;;;;;;;;;;;;;;;;;;5074011;28;20050;-75
2023/11/10 16:14:27;;;;;;;;;;;;;;;;;;5073845;28;19943;-75
2023/11/10 16:16:53;;;;;;;;;;;;;;;;;;5073387;28;20006;-75
2023/11/10 16:19:23;;;;;;;;;;;;;;;;;;5073912;28;20003;-75
2023/11/10 16:21:49;;;;;;;;;;;;;;;;;;5072433;28;19909;-75
2023/11/10 16:24:14;;;;;;;;;;;;;;;;;;5073518;28;20336;-74
2023/11/10 16:26:41;;;;;;;;;;;;;;;;;;5073834;28;20334;-75
2023/11/10 16:29:06;;;;;;;;;;;;;;;;;;5073527;28;20277;-74
2023/11/10 16:31:33;;;;;;;;;;;;;;;;;;5073310;28;19909;-75
2023/11/10 16:33:59;;;;;;;;;;;;;;;;;;5074037;28;20249;-75
2023/11/10 16:36:25;;;;;;;;;;;;;;;;;;5073851;28;19909;-77
2023/11/10 16:38:51;;;;;;;;;;;;;;;;;;5073835;28;20291;-74
2023/11/10 16:41:17;;;;;;;;;;;;;;;;;;5073757;28;20368;-75
2023/11/10 16:43:43;;;;;;;;;;;;;;;;;;5073220;28;20007;-75
2023/11/10 16:46:09;;;;;;;;;;;;;;;;;;5073648;28;19959;-75
2023/11/10 16:48:35;;;;;;;;;;;;;;;;;;5073405;28;19920;-76
2023/11/10 16:51:01;;;;;;;;;;;;;;;;;;5073359;28;20293;-76
2023/11/10 16:53:27;;;;;;;;;;;;;;;;;;5073700;28;20360;-75
2023/11/10 16:55:53;;;;;;;;;;;;;;;;;;5073543;28;19934;-74
2023/11/10 16:58:18;;;;;;;;;;;;;;;;;;5073137;28;19913;-75
2023/11/10 17:00:44;;;;;;;;;;;;;;;;;;5073392;28;20135;-75
2023/11/10 17:03:10;;;;;;;;;;;;;;;;;;5073399;28;19909;-75
2023/11/10 17:05:39;;;;;;;;;;;;;;;;;;5072983;28;19908;-75
2023/11/10 17:08:06;;;;;;;;;;;;;;;;;;5073339;28;19925;-75
2023/11/10 17:10:32;;;;;;;;;;;;;;;;;;5073430;28;19974;-75
2023/11/10 17:12:58;;;;;;;;;;;;;;;;;;5072884;28;19909;-75
2023/11/10 17:15:25;;;;;;;;;;;;;;;;;;5072121;28;20335;-75
2023/11/10 17:17:51;;;;;;;;;;;;;;;;;;5073380;28;19909;-73
2023/11/10 17:20:17;;;;;;;;;;;;;;;;;;5072924;28;19909;-75
2023/11/10 17:22:43;;;;;;;;;;;;;;;;;;5073271;28;19908;-75
2023/11/10 17:25:09;;;;;;;;;;;;;;;;;;5073310;28;19974;-75
2023/11/10 17:27:35;;;;;;;;;;;;;;;;;;5072830;28;19970;-75